createdAt,value
2019-03-06T00:02:20.480Z,84.50
2019-03-06T00:04:50.423Z,84.30
2019-03-06T00:07:21.389Z,84.30
2019-03-06T00:09:51.751Z,83.90
2019-03-06T00:12:24.027Z,83.70
2019-03-06T00:14:54.986Z,83.60
2019-03-06T00:17:24.947Z,83.60
2019-03-06T00:19:57.371Z,83.60
2019-03-06T00:22:26.958Z,83.80
2019-03-06T00:24:56.886Z,83.70
2019-03-06T00:27:26.755Z,83.40
2019-03-06T00:29:56.599Z,83.20
2019-03-06T00:32:26.483Z,83.10
2019-03-06T00:34:58.888Z,82.70
2019-03-06T00:37:28.086Z,82.60
2019-03-06T00:39:59.546Z,82.70
2019-03-06T00:42:30.481Z,83.00
2019-03-06T00:45:01.386Z,82.90
2019-03-06T00:47:34.175Z,82.80
2019-03-06T00:50:04.126Z,82.80
2019-03-06T00:52:36.551Z,81.80
2019-03-06T00:55:09.335Z,81.50
2019-03-06T00:57:40.734Z,81.80
2019-03-06T01:00:12.590Z,81.10
2019-03-06T01:02:42.468Z,80.90
2019-03-06T01:05:15.161Z,81.00
2019-03-06T01:07:47.535Z,81.20
2019-03-06T01:10:19.614Z,81.10
2019-03-06T01:12:49.523Z,81.20
2019-03-06T01:15:20.040Z,81.60
2019-03-06T01:17:50.795Z,81.60
2019-03-06T01:20:21.720Z,81.60
2019-03-06T01:22:52.860Z,82.00
2019-03-06T01:25:23.784Z,82.30
2019-03-06T01:27:53.540Z,82.00
2019-03-06T01:30:33.458Z,82.10
2019-03-06T01:33:14.654Z,82.10
2019-03-06T01:35:54.658Z,81.80
2019-03-06T01:38:29.051Z,81.80
2019-03-06T01:41:17.907Z,81.60
2019-03-06T01:43:50.615Z,81.50
2019-03-06T01:46:24.711Z,81.50
2019-03-06T01:48:55.754Z,81.50
2019-03-06T01:51:27.658Z,81.40
2019-03-06T01:54:01.053Z,81.60
2019-03-06T01:56:33.296Z,81.40
2019-03-06T01:59:03.144Z,81.40
2019-03-06T02:01:33.106Z,81.40
2019-03-06T02:04:05.771Z,81.40
2019-03-06T02:06:35.585Z,81.20
2019-03-06T02:09:09.137Z,81.20
2019-03-06T02:11:42.459Z,81.40
2019-03-06T02:14:13.593Z,81.40
2019-03-06T02:16:45.936Z,81.40
2019-03-06T02:19:15.875Z,81.40
2019-03-06T02:21:44.944Z,81.40
2019-03-06T02:24:15.923Z,81.60
2019-03-06T02:26:50.122Z,81.60
2019-03-06T02:29:19.903Z,81.70
2019-03-06T02:31:49.223Z,81.60
2019-03-06T02:34:21.567Z,81.70
2019-03-06T02:36:53.055Z,81.70
2019-03-06T02:39:23.045Z,81.90
2019-03-06T02:41:54.454Z,81.90
2019-03-06T02:44:24.515Z,82.20
2019-03-06T02:46:55.872Z,82.10
2019-03-06T02:49:26.842Z,82.00
2019-03-06T02:51:58.166Z,81.80
2019-03-06T02:54:29.113Z,81.90
2019-03-06T02:56:59.457Z,82.20
2019-03-06T02:59:34.024Z,82.00
2019-03-06T03:02:07.960Z,81.70
2019-03-06T03:04:42.177Z,82.00
2019-03-06T03:07:14.200Z,82.10
2019-03-06T03:09:43.488Z,81.80
2019-03-06T03:12:14.566Z,81.70
2019-03-06T03:14:45.608Z,81.60
2019-03-06T03:17:16.528Z,81.40
2019-03-06T03:19:48.919Z,81.30
2019-03-06T03:22:21.941Z,81.40
2019-03-06T03:24:54.107Z,81.70
2019-03-06T03:27:25.086Z,81.80
2019-03-06T03:29:55.907Z,81.70
2019-03-06T03:32:25.794Z,81.90
2019-03-06T03:35:00.677Z,81.80
2019-03-06T03:37:33.333Z,81.80
2019-03-06T03:40:04.326Z,81.60
2019-03-06T03:42:34.409Z,81.40
2019-03-06T03:45:04.830Z,81.30
2019-03-06T03:47:34.798Z,81.50
2019-03-06T03:50:06.695Z,81.50
2019-03-06T03:52:37.783Z,81.80
2019-03-06T03:55:17.219Z,82.00
2019-03-06T03:57:48.267Z,82.20
2019-03-06T04:00:23.696Z,82.40
2019-03-06T04:02:53.247Z,82.40
2019-03-06T04:05:25.690Z,82.70
2019-03-06T04:07:55.704Z,83.00
2019-03-06T04:10:26.250Z,82.70
2019-03-06T04:12:57.319Z,82.90
2019-03-06T04:15:27.296Z,83.00
2019-03-06T04:17:58.564Z,83.30
2019-03-06T04:20:28.428Z,83.20
2019-03-06T04:22:59.431Z,83.30
2019-03-06T04:25:29.368Z,83.50
2019-03-06T04:27:59.207Z,83.60
2019-03-06T04:30:28.450Z,83.40
2019-03-06T04:33:01.430Z,83.50
2019-03-06T04:35:31.267Z,83.70
2019-03-06T04:38:04.531Z,84.00
2019-03-06T04:40:35.686Z,84.00
2019-03-06T04:43:08.595Z,84.00
2019-03-06T04:45:39.486Z,84.00
2019-03-06T04:48:29.757Z,84.20
2019-03-06T04:50:59.785Z,83.90
2019-03-06T04:56:00.502Z,83.70
2019-03-06T04:58:30.437Z,83.60
2019-03-06T05:01:00.339Z,83.80
2019-03-06T05:03:31.219Z,83.90
2019-03-06T05:06:02.050Z,83.90
2019-03-06T05:08:32.145Z,84.00
2019-03-06T05:11:01.462Z,84.30
2019-03-06T05:13:33.803Z,84.60
2019-03-06T05:16:04.893Z,84.80
2019-03-06T05:18:36.324Z,85.00
2019-03-06T05:21:07.210Z,84.60
2019-03-06T05:23:38.188Z,84.70
2019-03-06T05:26:09.220Z,84.50
2019-03-06T05:28:40.289Z,84.60
2019-03-06T05:31:09.934Z,84.40
2019-03-06T05:33:39.746Z,84.20
2019-03-06T05:36:22.851Z,84.30
2019-03-06T05:39:07.126Z,84.40
2019-03-06T05:41:40.022Z,84.30
2019-03-06T05:44:09.874Z,84.20
2019-03-06T05:46:39.785Z,84.30
2019-03-06T05:49:13.021Z,84.40
2019-03-06T05:51:44.371Z,84.40
2019-03-06T05:54:15.359Z,84.30
2019-03-06T05:56:45.313Z,84.10
2019-03-06T05:59:16.099Z,84.10
2019-03-06T06:01:46.958Z,83.90
2019-03-06T06:04:17.938Z,83.80
2019-03-06T06:06:47.918Z,83.80
2019-03-06T06:09:17.327Z,83.90
2019-03-06T06:11:47.251Z,83.80
2019-03-06T06:14:18.359Z,83.90
2019-03-06T06:16:49.323Z,83.80
2019-03-06T06:19:20.143Z,83.60
2019-03-06T06:21:57.640Z,83.60
2019-03-06T06:24:28.434Z,83.60
2019-03-06T06:27:00.858Z,83.70
2019-03-06T06:29:33.079Z,83.50
2019-03-06T06:32:03.062Z,83.30
2019-03-06T06:34:32.858Z,83.30
2019-03-06T06:37:05.315Z,83.30
2019-03-06T06:39:38.496Z,83.30
2019-03-06T06:42:09.500Z,82.60
2019-03-06T06:44:40.979Z,82.30
2019-03-06T06:47:11.938Z,82.10
2019-03-06T06:49:46.103Z,81.50
2019-03-06T06:52:21.778Z,80.60
2019-03-06T06:55:16.026Z,79.90
2019-03-06T06:57:52.620Z,79.40
2019-03-06T07:00:56.970Z,79.40
2019-03-06T07:03:41.382Z,79.60
2019-03-06T07:06:13.955Z,79.50
2019-03-06T07:08:49.340Z,79.50
2019-03-06T07:11:20.822Z,79.40
2019-03-06T07:13:58.532Z,79.20
2019-03-06T07:16:46.426Z,78.30
2019-03-06T07:19:17.843Z,77.50
2019-03-06T07:21:54.361Z,78.30
2019-03-06T07:24:31.992Z,77.00
2019-03-06T07:27:15.709Z,76.60
2019-03-06T07:29:54.331Z,77.20
2019-03-06T07:32:25.774Z,76.30
2019-03-06T07:35:48.865Z,75.90
2019-03-06T07:38:19.827Z,74.80
2019-03-06T07:40:57.120Z,75.70
2019-03-06T07:43:45.563Z,73.90
2019-03-06T07:46:33.394Z,74.80
2019-03-06T07:49:21.976Z,74.20
2019-03-06T07:52:03.963Z,73.30
2019-03-06T07:54:53.606Z,72.80
2019-03-06T07:57:24.499Z,73.90
2019-03-06T07:59:56.631Z,74.30
2019-03-06T08:02:32.390Z,73.10
2019-03-06T08:05:01.623Z,71.70
2019-03-06T08:07:34.031Z,72.20
2019-03-06T08:10:12.887Z,71.10
2019-03-06T08:12:43.704Z,69.80
2019-03-06T08:15:17.902Z,67.10
2019-03-06T08:17:53.355Z,64.10
2019-03-06T08:20:28.591Z,61.90
2019-03-06T08:23:16.163Z,60.50
2019-03-06T08:25:45.220Z,58.60
2019-03-06T08:28:16.380Z,58.80
2019-03-06T08:30:53.946Z,58.20
2019-03-06T08:33:23.902Z,58.20
2019-03-06T08:35:53.847Z,57.60
2019-03-06T08:38:26.145Z,57.40
2019-03-06T08:41:03.843Z,56.80
2019-03-06T08:43:27.602Z,57.50
2019-03-06T08:45:59.164Z,56.30
2019-03-06T08:48:48.591Z,54.40
2019-03-06T08:51:25.742Z,55.20
2019-03-06T08:54:03.001Z,55.60
2019-03-06T08:56:40.332Z,54.40
2019-03-06T08:59:21.906Z,55.20
2019-03-06T09:02:01.249Z,54.00
2019-03-06T09:04:33.995Z,54.40
2019-03-06T09:07:11.446Z,54.10
2019-03-06T09:09:47.003Z,53.70
2019-03-06T09:12:34.296Z,54.80
2019-03-06T09:15:08.098Z,55.40
2019-03-06T09:17:39.693Z,56.20
2019-03-06T09:20:23.794Z,57.50
2019-03-06T09:22:59.331Z,58.50
2019-03-06T09:25:30.770Z,58.10
2019-03-06T09:28:03.224Z,58.50
2019-03-06T09:30:37.889Z,60.00
2019-03-06T09:33:12.571Z,59.40
2019-03-06T09:35:58.999Z,59.60
2019-03-06T09:38:46.293Z,58.90
2019-03-06T09:41:27.563Z,59.10
2019-03-06T09:44:00.078Z,57.80
2019-03-06T09:46:38.169Z,58.80
2019-03-06T09:49:28.791Z,57.80
2019-03-06T09:52:00.767Z,57.20
2019-03-06T09:54:45.437Z,57.80
2019-03-06T09:57:17.940Z,56.70
2019-03-06T09:59:52.280Z,57.80
2019-03-06T10:02:33.658Z,56.60
2019-03-06T10:05:05.935Z,55.00
2019-03-06T10:07:54.893Z,54.70
2019-03-06T10:10:46.028Z,52.80
2019-03-06T10:13:21.376Z,52.70
2019-03-06T10:15:52.874Z,54.20
2019-03-06T10:18:26.854Z,53.80
2019-03-06T10:20:56.274Z,55.50
2019-03-06T10:23:27.117Z,54.00
2019-03-06T10:25:57.194Z,54.90
2019-03-06T10:28:28.195Z,50.90
2019-03-06T10:31:02.673Z,49.90
2019-03-06T10:33:31.126Z,49.70
2019-03-06T10:36:01.457Z,49.10
2019-03-06T10:38:31.462Z,49.70
2019-03-06T10:41:02.492Z,49.40
2019-03-06T10:43:33.498Z,47.50
2019-03-06T10:46:04.270Z,47.20
2019-03-06T10:48:34.295Z,46.20
2019-03-06T10:51:06.841Z,45.60
2019-03-06T10:56:10.448Z,45.10
2019-03-06T10:58:40.191Z,44.70
2019-03-06T11:01:11.599Z,44.90
2019-03-06T11:03:43.947Z,44.00
2019-03-06T11:06:14.919Z,43.30
2019-03-06T11:08:45.749Z,42.60
2019-03-06T11:11:17.166Z,43.30
2019-03-06T11:13:48.198Z,43.20
2019-03-06T11:16:18.112Z,41.20
2019-03-06T11:18:49.191Z,41.60
2019-03-06T11:21:20.946Z,40.90
2019-03-06T11:23:52.009Z,41.10
2019-03-06T11:26:22.714Z,40.60
2019-03-06T11:28:53.874Z,39.10
2019-03-06T11:31:23.359Z,39.20
2019-03-06T11:33:52.747Z,39.50
2019-03-06T11:36:23.677Z,40.50
2019-03-06T11:38:54.669Z,39.00
2019-03-06T11:41:24.653Z,38.60
2019-03-06T11:43:55.076Z,38.70
2019-03-06T11:46:25.063Z,38.60
2019-03-06T11:48:56.289Z,38.70
2019-03-06T11:51:26.964Z,39.70
2019-03-06T11:53:58.179Z,39.60
2019-03-06T11:56:29.720Z,40.30
2019-03-06T11:58:59.634Z,39.40
2019-03-06T12:01:32.524Z,38.80
2019-03-06T12:04:03.514Z,39.60
2019-03-06T12:06:33.367Z,39.70
2019-03-06T12:09:04.547Z,39.40
2019-03-06T12:11:35.803Z,39.10
2019-03-06T12:14:10.435Z,39.70
2019-03-06T12:16:43.773Z,40.00
2019-03-06T12:19:15.276Z,40.80
2019-03-06T12:21:45.263Z,40.70
2019-03-06T12:24:16.459Z,41.50
2019-03-06T12:26:46.259Z,42.70
2019-03-06T12:29:15.540Z,41.90
2019-03-06T12:31:46.837Z,41.70
2019-03-06T12:34:16.856Z,41.70
2019-03-06T12:36:48.159Z,40.80
2019-03-06T12:39:19.168Z,40.90
2019-03-06T12:41:49.898Z,40.50
2019-03-06T12:44:21.123Z,40.50
2019-03-06T12:46:52.059Z,40.60
2019-03-06T12:49:23.100Z,39.90
2019-03-06T12:51:54.602Z,40.50
2019-03-06T12:54:25.893Z,40.30
2019-03-06T12:56:55.975Z,41.00
2019-03-06T12:59:26.931Z,42.00
2019-03-06T13:01:59.410Z,41.90
2019-03-06T13:04:53.282Z,42.20
2019-03-06T13:07:23.667Z,41.70
2019-03-06T13:09:54.655Z,42.30
2019-03-06T13:12:25.928Z,42.60
2019-03-06T13:14:58.628Z,43.40
2019-03-06T13:17:31.661Z,42.80
2019-03-06T13:20:01.431Z,42.50
2019-03-06T13:22:32.323Z,42.40
2019-03-06T13:25:03.320Z,42.60
2019-03-06T13:27:34.233Z,43.70
2019-03-06T13:30:04.519Z,43.80
2019-03-06T13:32:35.286Z,43.90
2019-03-06T13:35:07.351Z,42.40
2019-03-06T13:37:37.419Z,42.40
2019-03-06T13:40:08.099Z,43.00
2019-03-06T13:42:37.979Z,43.20
2019-03-06T13:45:10.159Z,43.40
2019-03-06T13:47:40.211Z,43.90
2019-03-06T13:50:12.243Z,43.70
2019-03-06T13:52:42.182Z,43.70
2019-03-06T13:55:13.513Z,44.00
2019-03-06T13:57:44.460Z,43.20
2019-03-06T14:00:18.299Z,43.40
2019-03-06T14:02:51.604Z,44.80
2019-03-06T14:05:21.635Z,44.40
2019-03-06T14:07:56.237Z,43.90
2019-03-06T14:10:26.498Z,43.90
2019-03-06T14:12:57.699Z,44.10
2019-03-06T14:15:27.794Z,44.30
2019-03-06T14:17:58.862Z,43.60
2019-03-06T14:20:32.472Z,43.80
2019-03-06T14:23:03.351Z,44.30
2019-03-06T14:25:33.239Z,44.40
2019-03-06T14:28:07.708Z,45.40
2019-03-06T14:30:39.532Z,44.90
2019-03-06T14:33:10.690Z,45.50
2019-03-06T14:35:41.847Z,45.60
2019-03-06T14:38:13.045Z,46.50
2019-03-06T14:40:44.925Z,47.00
2019-03-06T14:43:17.043Z,47.40
2019-03-06T14:45:52.018Z,47.80
2019-03-06T14:48:21.673Z,47.60
2019-03-06T14:50:52.564Z,48.80
2019-03-06T14:53:22.462Z,48.60
2019-03-06T14:55:53.632Z,47.90
2019-03-06T14:58:23.434Z,48.20
2019-03-06T15:00:54.391Z,48.40
2019-03-06T15:03:26.625Z,48.50
2019-03-06T15:05:56.596Z,48.00
2019-03-06T15:08:29.525Z,48.60
2019-03-06T15:11:00.686Z,49.30
2019-03-06T15:13:31.484Z,50.10
2019-03-06T15:16:02.624Z,50.80
2019-03-06T15:18:33.622Z,51.10
2019-03-06T15:21:04.538Z,50.90
2019-03-06T15:23:36.582Z,50.30
2019-03-06T15:26:09.900Z,50.90
2019-03-06T15:28:40.970Z,50.80
2019-03-06T15:31:13.887Z,51.00
2019-03-06T15:33:44.786Z,51.50
2019-03-06T15:36:18.209Z,52.10
2019-03-06T15:38:48.557Z,53.10
2019-03-06T15:41:18.370Z,53.60
2019-03-06T15:43:49.357Z,53.70
2019-03-06T15:46:21.730Z,53.60
2019-03-06T15:48:54.907Z,53.60
2019-03-06T15:51:27.605Z,53.80
2019-03-06T15:53:58.956Z,53.50
2019-03-06T15:56:29.020Z,54.50
2019-03-06T15:58:58.774Z,55.50
2019-03-06T16:01:33.337Z,55.90
2019-03-06T16:04:04.393Z,56.90
2019-03-06T16:06:35.677Z,57.00
2019-03-06T16:09:09.122Z,57.30
2019-03-06T16:11:41.643Z,57.70
2019-03-06T16:14:11.707Z,57.80
2019-03-06T16:16:45.425Z,57.90
2019-03-06T16:19:16.446Z,58.20
2019-03-06T16:21:46.344Z,58.60
2019-03-06T16:24:16.293Z,59.20
2019-03-06T16:26:47.552Z,59.50
2019-03-06T16:29:19.725Z,59.50
2019-03-06T16:31:49.771Z,59.70
2019-03-06T16:34:20.804Z,59.60
2019-03-06T16:36:51.686Z,60.10
2019-03-06T16:39:25.545Z,60.50
2019-03-06T16:41:55.422Z,60.80
2019-03-06T16:44:28.274Z,60.80
2019-03-06T16:47:06.414Z,61.00
2019-03-06T16:49:31.566Z,61.00
2019-03-06T16:52:02.571Z,61.10
2019-03-06T16:54:33.572Z,61.40
2019-03-06T16:57:04.522Z,61.90
2019-03-06T16:59:35.535Z,62.30
2019-03-06T17:02:07.356Z,62.60
2019-03-06T17:04:37.252Z,62.60
2019-03-06T17:07:08.254Z,62.70
2019-03-06T17:09:39.295Z,62.80
2019-03-06T17:12:10.386Z,63.00
2019-03-06T17:14:41.469Z,63.00
2019-03-06T17:17:12.394Z,63.10
2019-03-06T17:19:42.628Z,63.70
2019-03-06T17:22:13.355Z,63.70
2019-03-06T17:24:43.306Z,63.90
2019-03-06T17:27:14.239Z,64.10
2019-03-06T17:29:45.822Z,64.20
2019-03-06T17:32:15.888Z,64.30
2019-03-06T17:34:46.778Z,64.60
2019-03-06T17:37:17.820Z,64.70
2019-03-06T17:39:47.643Z,64.70
2019-03-06T17:42:18.871Z,64.90
2019-03-06T17:44:49.682Z,64.60
2019-03-06T17:47:20.478Z,64.40
2019-03-06T17:49:51.274Z,64.70
2019-03-06T17:52:22.160Z,64.40
2019-03-06T17:54:52.423Z,64.10
2019-03-06T17:57:23.254Z,64.20
2019-03-06T17:59:54.259Z,63.80
2019-03-06T18:02:26.500Z,63.80
2019-03-06T18:04:56.395Z,63.50
2019-03-06T18:07:29.623Z,63.60
2019-03-06T18:10:00.608Z,63.60
2019-03-06T18:12:31.987Z,63.40
2019-03-06T18:15:02.873Z,63.30
2019-03-06T18:17:33.733Z,63.20
2019-03-06T18:20:04.081Z,63.20
2019-03-06T18:22:38.852Z,63.10
2019-03-06T18:25:13.316Z,63.00
2019-03-06T18:27:43.384Z,63.20
2019-03-06T18:30:19.791Z,63.30
2019-03-06T18:32:51.531Z,63.30
2019-03-06T18:35:26.429Z,63.50
2019-03-06T18:37:57.427Z,63.50
2019-03-06T18:40:28.976Z,63.70
2019-03-06T18:43:00.029Z,63.70
2019-03-06T18:45:31.283Z,63.80
2019-03-06T18:48:04.215Z,64.10
2019-03-06T18:50:35.082Z,64.10
2019-03-06T18:53:05.907Z,64.00
2019-03-06T18:55:36.698Z,64.30
2019-03-06T18:58:06.677Z,64.50
2019-03-06T19:00:39.077Z,64.70
2019-03-06T19:03:13.314Z,64.70
2019-03-06T19:05:45.620Z,65.00
2019-03-06T19:08:15.551Z,64.90
2019-03-06T19:10:46.577Z,65.00
2019-03-06T19:13:16.432Z,65.10
2019-03-06T19:15:48.658Z,65.10
2019-03-06T19:18:19.656Z,65.20
2019-03-06T19:20:49.509Z,65.20
2019-03-06T19:23:22.351Z,65.40
2019-03-06T19:25:54.745Z,65.30
2019-03-06T19:28:27.620Z,65.30
2019-03-06T19:30:58.383Z,65.40
2019-03-06T19:33:29.736Z,65.40
2019-03-06T19:36:00.502Z,65.60
2019-03-06T19:38:32.763Z,65.60
2019-03-06T19:41:05.841Z,66.00
2019-03-06T19:43:36.783Z,66.10
2019-03-06T19:46:06.645Z,66.50
2019-03-06T19:48:37.765Z,66.60
2019-03-06T19:51:11.440Z,66.70
2019-03-06T19:53:42.552Z,67.00
2019-03-06T19:56:31.813Z,67.10
2019-03-06T19:59:02.977Z,67.20
2019-03-06T20:01:33.811Z,67.40
2019-03-06T20:04:05.004Z,67.20
2019-03-06T20:06:36.501Z,67.30
2019-03-06T20:09:09.655Z,67.40
2019-03-06T20:11:43.796Z,67.50
2019-03-06T20:14:14.640Z,67.70
2019-03-06T20:16:44.475Z,67.40
2019-03-06T20:19:13.819Z,67.40
2019-03-06T20:21:44.694Z,67.40
2019-03-06T20:24:17.103Z,67.30
2019-03-06T20:26:48.234Z,67.50
2019-03-06T20:29:19.160Z,67.40
2019-03-06T20:31:51.594Z,67.70
2019-03-06T20:34:21.506Z,67.70
2019-03-06T20:36:52.862Z,67.90
2019-03-06T20:39:24.443Z,68.10
2019-03-06T20:41:55.264Z,68.10
2019-03-06T20:44:27.955Z,68.20
2019-03-06T20:47:01.119Z,68.30
2019-03-06T20:49:33.589Z,68.70
2019-03-06T20:52:03.373Z,68.70
2019-03-06T20:54:34.250Z,68.80
2019-03-06T20:57:05.144Z,68.70
2019-03-06T20:59:37.334Z,68.60
2019-03-06T21:02:08.360Z,68.70
2019-03-06T21:04:40.671Z,68.40
2019-03-06T21:07:11.680Z,68.10
2019-03-06T21:09:41.707Z,67.70
2019-03-06T21:12:12.618Z,67.50
2019-03-06T21:14:46.924Z,67.40
2019-03-06T21:17:17.373Z,67.50
2019-03-06T21:19:47.584Z,67.40
2019-03-06T21:22:17.585Z,67.20
2019-03-06T21:24:51.074Z,67.00
2019-03-06T21:27:20.902Z,66.90
2019-03-06T21:29:50.819Z,67.10
2019-03-06T21:32:21.781Z,67.20
2019-03-06T21:34:52.707Z,67.20
2019-03-06T21:37:22.669Z,67.10
2019-03-06T21:39:53.798Z,67.30
2019-03-06T21:42:29.214Z,67.50
2019-03-06T21:45:00.572Z,67.50
2019-03-06T21:47:31.369Z,67.60
2019-03-06T21:50:02.347Z,67.70
2019-03-06T21:52:32.307Z,67.60
2019-03-06T21:55:05.099Z,67.80
2019-03-06T21:57:37.403Z,67.80
2019-03-06T22:00:11.547Z,67.70
2019-03-06T22:02:42.752Z,67.80
2019-03-06T22:05:13.542Z,67.80
2019-03-06T22:07:44.502Z,67.80
2019-03-06T22:10:17.355Z,67.90
2019-03-06T22:12:48.561Z,67.90
2019-03-06T22:15:23.918Z,68.00
2019-03-06T22:17:56.929Z,67.90
2019-03-06T22:20:27.147Z,68.00
2019-03-06T22:22:58.036Z,68.20
2019-03-06T22:25:27.939Z,68.10
2019-03-06T22:27:58.836Z,68.10
2019-03-06T22:30:28.818Z,68.20
2019-03-06T22:32:59.830Z,67.90
2019-03-06T22:35:29.723Z,67.80
2019-03-06T22:38:00.071Z,67.70
2019-03-06T22:40:29.958Z,67.70
2019-03-06T22:43:03.795Z,67.80
2019-03-06T22:45:35.193Z,67.70
2019-03-06T22:48:06.023Z,67.80
2019-03-06T22:50:37.171Z,67.60
2019-03-06T22:53:07.039Z,67.50
2019-03-06T22:55:39.207Z,67.60
2019-03-06T22:58:08.955Z,67.60
2019-03-06T23:00:43.347Z,67.80
2019-03-06T23:03:14.520Z,67.80
2019-03-06T23:05:45.738Z,67.50
2019-03-06T23:08:18.096Z,67.60
2019-03-06T23:10:49.056Z,67.50
2019-03-06T23:13:19.988Z,67.30
2019-03-06T23:15:51.478Z,67.20
2019-03-06T23:18:24.453Z,67.20
2019-03-06T23:20:55.440Z,67.10
2019-03-06T23:23:26.416Z,67.10
2019-03-06T23:25:57.698Z,67.20
2019-03-06T23:28:28.631Z,67.10
2019-03-06T23:30:58.510Z,67.10
2019-03-06T23:33:28.528Z,67.10
2019-03-06T23:35:59.412Z,67.10
2019-03-06T23:38:30.230Z,67.30
2019-03-06T23:41:01.072Z,67.30
2019-03-06T23:43:32.023Z,67.30
2019-03-06T23:46:03.482Z,67.30
2019-03-06T23:48:34.362Z,67.40
2019-03-06T23:51:06.773Z,67.40
2019-03-06T23:53:37.678Z,67.60
2019-03-06T23:56:08.431Z,67.50
2019-03-06T23:58:39.387Z,67.60
